createdAt,value
2018-02-10T00:00:25.742Z,55.95
2018-02-10T00:02:54.215Z,55.78
2018-02-10T00:05:23.039Z,57.72
2018-02-10T00:07:51.623Z,55.70
2018-02-10T00:10:20.513Z,60.22
2018-02-10T00:12:49.269Z,55.80
2018-02-10T00:15:17.833Z,59.05
2018-02-10T00:17:46.264Z,55.65
2018-02-10T00:20:15.050Z,56.90
2018-02-10T00:22:43.534Z,60.08
2018-02-10T00:25:11.978Z,55.60
2018-02-10T00:27:40.639Z,56.97
2018-02-10T00:30:09.101Z,58.10
2018-02-10T00:32:37.586Z,58.45
2018-02-10T00:35:06.662Z,59.20
2018-02-10T00:37:35.091Z,54.75
2018-02-10T00:40:03.592Z,56.92
2018-02-10T00:42:32.202Z,60.00
2018-02-10T00:45:00.654Z,58.80
2018-02-10T00:47:29.070Z,59.88
2018-02-10T00:49:57.646Z,61.85
2018-02-10T00:52:26.180Z,56.25
2018-02-10T00:54:54.764Z,58.58
2018-02-10T00:57:23.940Z,57.58
2018-02-10T00:59:52.460Z,57.70
2018-02-10T01:02:20.946Z,60.30
2018-02-10T01:04:49.632Z,56.40
2018-02-10T01:07:19.243Z,56.28
2018-02-10T01:09:47.820Z,55.30
2018-02-10T01:12:17.789Z,53.95
2018-02-10T01:14:46.213Z,58.15
2018-02-10T01:17:14.697Z,56.80
2018-02-10T01:19:43.710Z,56.40
2018-02-10T01:22:12.134Z,59.42
2018-02-10T01:24:40.578Z,55.20
2018-02-10T01:27:09.147Z,55.63
2018-02-10T01:29:37.573Z,58.80
2018-02-10T01:32:05.990Z,55.28
2018-02-10T01:34:34.629Z,56.63
2018-02-10T01:37:03.041Z,59.72
2018-02-10T01:39:31.578Z,59.20
2018-02-10T01:42:00.697Z,61.35
2018-02-10T01:44:29.147Z,57.88
2018-02-10T01:46:57.627Z,55.85
2018-02-10T01:49:26.411Z,58.63
2018-02-10T01:51:54.989Z,57.90
2018-02-10T01:54:23.508Z,62.90
2018-02-10T01:56:52.793Z,62.53
2018-02-10T01:59:21.462Z,61.55
2018-02-10T02:01:49.918Z,62.38
2018-02-10T02:04:18.693Z,64.32
2018-02-10T02:06:47.109Z,64.85
2018-02-10T02:09:15.549Z,61.10
2018-02-10T02:11:44.200Z,60.50
2018-02-10T02:14:12.641Z,58.65
2018-02-10T02:16:41.066Z,56.70
2018-02-10T02:19:09.818Z,55.65
2018-02-10T02:21:38.288Z,63.45
2018-02-10T02:24:06.727Z,59.20
2018-02-10T02:26:36.125Z,56.88
2018-02-10T02:29:04.586Z,58.55
2018-02-10T02:31:33.044Z,59.95
2018-02-10T02:34:02.336Z,60.58
2018-02-10T02:36:30.772Z,62.60
2018-02-10T02:38:59.781Z,55.70
2018-02-10T02:41:28.312Z,59.78
2018-02-10T02:43:56.791Z,59.67
2018-02-10T02:46:25.443Z,56.85
2018-02-10T02:48:55.392Z,58.92
2018-02-10T02:51:23.937Z,60.90
2018-02-10T02:53:52.415Z,60.65
2018-02-10T02:56:22.232Z,58.50
2018-02-10T02:58:51.156Z,59.08
2018-02-10T03:01:19.726Z,57.97
2018-02-10T03:03:48.286Z,63.55
2018-02-10T03:06:16.900Z,60.92
2018-02-10T03:08:45.358Z,58.42
2018-02-10T03:11:13.865Z,58.25
2018-02-10T03:13:42.304Z,60.08
2018-02-10T03:16:10.726Z,60.90
2018-02-10T03:18:40.062Z,59.55
2018-02-10T03:21:08.503Z,58.80
2018-02-10T03:23:36.950Z,61.03
2018-02-10T03:26:06.015Z,57.88
2018-02-10T03:28:34.449Z,60.25
2018-02-10T03:31:02.876Z,55.97
2018-02-10T03:33:31.489Z,57.83
2018-02-10T03:35:59.922Z,58.40
2018-02-10T03:38:28.404Z,54.88
2018-02-10T03:40:57.705Z,59.20
2018-02-10T03:43:26.293Z,57.15
2018-02-10T03:45:54.770Z,59.20
2018-02-10T03:48:23.973Z,61.30
2018-02-10T03:50:52.543Z,59.33
2018-02-10T03:53:21.239Z,55.10
2018-02-10T03:55:49.933Z,55.55
2018-02-10T03:58:18.413Z,57.53
2018-02-10T04:00:46.870Z,58.28
2018-02-10T04:03:16.503Z,56.88
2018-02-10T04:05:45.976Z,56.25
2018-02-10T04:08:14.416Z,54.22
2018-02-10T04:10:43.219Z,56.20
2018-02-10T04:13:11.629Z,57.97
2018-02-10T04:15:40.102Z,57.15
2018-02-10T04:18:08.592Z,57.00
2018-02-10T04:20:37.029Z,55.10
2018-02-10T04:23:05.452Z,56.97
2018-02-10T04:25:33.934Z,57.22
2018-02-10T04:28:02.369Z,58.75
2018-02-10T04:30:30.870Z,55.85
2018-02-10T04:32:59.872Z,59.28
2018-02-10T04:35:28.364Z,57.75
2018-02-10T04:37:57.059Z,58.08
2018-02-10T04:40:26.148Z,54.60
2018-02-10T04:42:54.731Z,56.33
2018-02-10T04:45:23.231Z,55.10
2018-02-10T04:47:52.203Z,57.42
2018-02-10T04:50:20.708Z,57.05
2018-02-10T04:52:49.185Z,56.50
2018-02-10T04:55:17.714Z,54.50
2018-02-10T04:57:46.179Z,56.17
2018-02-10T05:00:14.610Z,57.35
2018-02-10T05:02:43.083Z,56.37
2018-02-10T05:05:11.561Z,55.75
2018-02-10T05:07:40.046Z,56.13
2018-02-10T05:10:08.576Z,55.28
2018-02-10T05:12:37.009Z,53.75
2018-02-10T05:15:05.491Z,53.92
2018-02-10T05:17:34.612Z,50.92
2018-02-10T05:20:03.088Z,51.28
2018-02-10T05:22:31.513Z,54.90
2018-02-10T05:25:00.032Z,52.25
2018-02-10T05:27:28.641Z,57.15
2018-02-10T05:29:57.224Z,53.15
2018-02-10T05:32:25.837Z,55.70
2018-02-10T05:34:54.306Z,53.75
2018-02-10T05:37:22.857Z,53.92
2018-02-10T05:39:51.705Z,54.90
2018-02-10T05:42:20.423Z,58.25
2018-02-10T05:44:48.849Z,57.85
2018-02-10T05:47:17.457Z,55.90
2018-02-10T05:49:45.889Z,52.42
2018-02-10T05:52:14.306Z,53.35
2018-02-10T05:54:43.336Z,62.50
2018-02-10T05:57:11.770Z,58.38
2018-02-10T05:59:41.132Z,55.17
2018-02-10T06:02:09.768Z,51.80
2018-02-10T06:04:38.251Z,59.75
2018-02-10T06:07:06.679Z,54.90
2018-02-10T06:09:35.263Z,52.85
2018-02-10T06:12:03.821Z,56.15
2018-02-10T06:14:32.279Z,54.63
2018-02-10T06:17:02.162Z,55.88
2018-02-10T06:19:30.621Z,54.63
2018-02-10T06:21:59.231Z,55.28
2018-02-10T06:24:28.505Z,55.10
2018-02-10T06:26:57.192Z,54.90
2018-02-10T06:29:25.720Z,57.05
2018-02-10T06:31:54.613Z,54.70
2018-02-10T06:34:23.168Z,56.92
2018-02-10T06:36:51.714Z,53.90
2018-02-10T06:39:20.454Z,60.03
2018-02-10T06:41:48.945Z,59.70
2018-02-10T06:44:17.394Z,55.05
2018-02-10T06:46:46.777Z,53.42
2018-02-10T06:49:15.661Z,53.28
2018-02-10T06:51:44.096Z,52.58
2018-02-10T06:54:12.915Z,57.05
2018-02-10T06:56:41.484Z,55.08
2018-02-10T06:59:09.973Z,54.30
2018-02-10T07:01:38.923Z,58.22
2018-02-10T07:04:07.384Z,58.10
2018-02-10T07:06:35.854Z,54.08
2018-02-10T07:09:04.512Z,57.22
2018-02-10T07:11:33.022Z,53.60
2018-02-10T07:14:01.593Z,54.83
2018-02-10T07:16:30.274Z,57.10
2018-02-10T07:18:58.812Z,56.05
2018-02-10T07:21:27.513Z,54.08
2018-02-10T07:23:56.184Z,56.58
2018-02-10T07:26:24.873Z,54.65
2018-02-10T07:28:53.572Z,51.22
2018-02-10T07:31:22.565Z,54.28
2018-02-10T07:33:51.216Z,53.87
2018-02-10T07:36:19.903Z,50.65
2018-02-10T07:38:48.458Z,53.42
2018-02-10T07:41:16.915Z,53.08
2018-02-10T07:43:45.359Z,51.37
2018-02-10T07:46:13.842Z,57.15
2018-02-10T07:48:42.303Z,55.42
2018-02-10T07:51:10.889Z,54.88
2018-02-10T07:53:39.442Z,57.60
2018-02-10T07:56:07.889Z,58.05
2018-02-10T07:58:36.372Z,52.03
2018-02-10T08:01:05.909Z,54.30
2018-02-10T08:03:34.377Z,53.85
2018-02-10T08:06:02.912Z,52.00
2018-02-10T08:08:31.485Z,54.95
2018-02-10T08:10:59.968Z,51.63
2018-02-10T08:13:29.269Z,54.45
2018-02-10T08:15:59.113Z,53.72
2018-02-10T08:18:27.695Z,51.72
2018-02-10T08:20:56.326Z,53.80
2018-02-10T08:23:24.867Z,51.47
2018-02-10T08:25:53.445Z,53.58
2018-02-10T08:28:22.204Z,56.50
2018-02-10T08:30:51.709Z,52.03
2018-02-10T08:33:20.942Z,52.72
2018-02-10T08:35:49.500Z,55.70
2018-02-10T08:38:18.350Z,52.35
2018-02-10T08:40:46.832Z,52.65
2018-02-10T08:43:15.274Z,52.78
2018-02-10T08:45:44.111Z,51.85
2018-02-10T08:48:12.592Z,51.83
2018-02-10T08:50:41.074Z,52.88
2018-02-10T08:53:10.326Z,51.67
2018-02-10T08:55:38.857Z,51.10
2018-02-10T08:58:07.441Z,51.85
2018-02-10T09:00:36.073Z,52.60
2018-02-10T09:03:04.576Z,56.40
2018-02-10T09:05:33.041Z,54.30
2018-02-10T09:08:01.978Z,54.38
2018-02-10T09:10:30.709Z,51.13
2018-02-10T09:12:59.248Z,54.35
2018-02-10T09:15:28.326Z,56.37
2018-02-10T09:17:57.620Z,53.60
2018-02-10T09:20:26.225Z,55.85
2018-02-10T09:22:56.118Z,55.40
2018-02-10T09:25:24.860Z,53.90
2018-02-10T09:27:54.058Z,55.08
2018-02-10T09:30:22.966Z,58.53
2018-02-10T09:32:51.705Z,54.15
2018-02-10T09:35:20.222Z,54.60
2018-02-10T09:37:49.560Z,57.40
2018-02-10T09:40:18.819Z,56.67
2018-02-10T09:42:47.320Z,57.95
2018-02-10T09:45:16.052Z,57.30
2018-02-10T09:47:44.509Z,54.25
2018-02-10T09:50:12.960Z,56.10
2018-02-10T09:52:42.017Z,51.90
2018-02-10T09:55:10.482Z,54.05
2018-02-10T09:57:38.918Z,54.80
2018-02-10T10:00:08.245Z,57.40
2018-02-10T10:02:36.669Z,72.65
2018-02-10T10:05:05.250Z,56.65
2018-02-10T10:07:34.511Z,56.53
2018-02-10T10:10:03.023Z,59.38
2018-02-10T10:12:31.503Z,59.45
2018-02-10T10:15:00.060Z,56.05
2018-02-10T10:17:28.592Z,54.03
2018-02-10T10:19:57.700Z,54.55
2018-02-10T10:22:26.961Z,59.67
2018-02-10T10:24:55.488Z,65.32
2018-02-10T10:27:24.137Z,66.70
2018-02-10T10:29:53.349Z,66.72
2018-02-10T10:32:22.104Z,64.15
2018-02-10T10:34:51.517Z,59.65
2018-02-10T10:37:20.626Z,58.28
2018-02-10T10:39:49.186Z,61.10
2018-02-10T10:42:17.617Z,60.40
2018-02-10T10:44:46.965Z,60.78
2018-02-10T10:47:15.424Z,57.45
2018-02-10T10:49:43.837Z,56.40
2018-02-10T10:52:12.575Z,56.10
2018-02-10T10:54:41.054Z,53.58
2018-02-10T10:57:09.524Z,53.10
2018-02-10T10:59:38.215Z,54.28
2018-02-10T11:02:06.642Z,55.40
2018-02-10T11:04:35.123Z,55.40
2018-02-10T11:07:04.527Z,55.03
2018-02-10T11:09:33.007Z,56.80
2018-02-10T11:12:01.916Z,56.20
2018-02-10T11:14:30.499Z,52.72
2018-02-10T11:16:58.976Z,54.03
2018-02-10T11:19:27.759Z,51.37
2018-02-10T11:21:56.553Z,52.30
2018-02-10T11:24:25.075Z,53.90
2018-02-10T11:26:53.570Z,52.83
2018-02-10T11:29:23.913Z,54.38
2018-02-10T11:31:52.530Z,56.35
2018-02-10T11:34:21.332Z,53.10
2018-02-10T11:36:50.618Z,51.88
2018-02-10T11:39:19.129Z,53.90
2018-02-10T11:41:47.545Z,52.80
2018-02-10T11:44:16.484Z,52.40
2018-02-10T11:46:44.942Z,51.72
2018-02-10T11:49:13.397Z,50.10
2018-02-10T11:51:42.631Z,48.72
2018-02-10T11:54:11.045Z,50.65
2018-02-10T11:56:39.475Z,49.88
2018-02-10T11:59:07.946Z,47.80
2018-02-10T12:01:36.386Z,44.55
2018-02-10T12:04:04.825Z,44.95
2018-02-10T12:06:33.297Z,46.00
2018-02-10T12:09:01.742Z,46.28
2018-02-10T12:11:30.583Z,47.33
2018-02-10T12:13:59.585Z,47.78
2018-02-10T12:16:28.268Z,49.50
2018-02-10T12:18:56.846Z,46.30
2018-02-10T12:21:26.168Z,47.97
2018-02-10T12:23:54.872Z,48.20
2018-02-10T12:26:23.389Z,48.65
2018-02-10T12:28:51.930Z,48.60
2018-02-10T12:31:21.493Z,47.80
2018-02-10T12:33:50.352Z,47.65
2018-02-10T12:36:19.013Z,49.22
2018-02-10T12:38:47.489Z,49.58
2018-02-10T12:41:15.929Z,44.53
2018-02-10T12:43:44.690Z,45.95
2018-02-10T12:46:13.141Z,45.95
2018-02-10T12:51:45.393Z,44.45
2018-02-10T12:54:14.918Z,46.00
2018-02-10T12:56:43.385Z,44.80
2018-02-10T12:59:12.638Z,47.42
2018-02-10T13:01:41.196Z,48.78
2018-02-10T13:04:09.696Z,42.47
2018-02-10T13:06:38.149Z,43.83
2018-02-10T13:09:06.614Z,44.45
2018-02-10T13:11:35.190Z,42.95
2018-02-10T13:14:03.697Z,46.55
2018-02-10T13:16:32.721Z,46.47
2018-02-10T13:19:01.244Z,44.50
2018-02-10T13:21:29.972Z,42.85
2018-02-10T13:23:58.832Z,44.22
2018-02-10T13:26:28.287Z,44.67
2018-02-10T13:28:56.818Z,41.67
2018-02-10T13:31:25.418Z,43.70
2018-02-10T13:33:54.906Z,43.83
2018-02-10T13:36:23.452Z,43.35
2018-02-10T13:38:52.681Z,43.95
2018-02-10T13:41:21.572Z,47.28
2018-02-10T13:43:50.125Z,41.40
2018-02-10T13:46:18.820Z,42.22
2018-02-10T13:48:47.250Z,44.65
2018-02-10T13:51:15.692Z,43.30
2018-02-10T13:53:44.191Z,43.35
2018-02-10T13:56:12.748Z,64.80
2018-02-10T13:58:41.369Z,43.65
2018-02-10T14:01:10.241Z,44.15
2018-02-10T14:03:38.701Z,43.28
2018-02-10T14:06:07.129Z,42.55
2018-02-10T14:08:35.661Z,44.95
2018-02-10T14:11:04.114Z,43.15
2018-02-10T14:13:32.533Z,41.78
2018-02-10T14:16:01.050Z,40.60
2018-02-10T14:18:29.613Z,39.53
2018-02-10T14:20:58.145Z,32.63
2018-02-10T14:23:27.968Z,33.40
2018-02-10T14:25:56.749Z,35.47
2018-02-10T14:28:25.235Z,34.92
2018-02-10T14:30:54.151Z,33.40
2018-02-10T14:33:22.843Z,37.65
2018-02-10T14:35:51.439Z,32.97
2018-02-10T14:38:21.393Z,34.60
2018-02-10T14:40:50.462Z,33.85
2018-02-10T14:43:18.897Z,35.78
2018-02-10T14:45:47.354Z,35.00
2018-02-10T14:48:15.815Z,34.92
2018-02-10T14:50:44.230Z,35.63
2018-02-10T14:53:12.908Z,36.92
2018-02-10T14:55:41.332Z,36.58
2018-02-10T14:58:09.881Z,36.28
2018-02-10T15:00:39.045Z,35.40
2018-02-10T15:03:07.455Z,34.60
2018-02-10T15:05:35.863Z,35.40
2018-02-10T15:08:04.472Z,35.47
2018-02-10T15:10:32.997Z,37.35
2018-02-10T15:13:01.458Z,36.97
2018-02-10T15:15:29.948Z,33.20
2018-02-10T15:17:58.947Z,35.85
2018-02-10T15:20:27.553Z,34.25
2018-02-10T15:22:56.526Z,35.00
2018-02-10T15:25:25.098Z,33.28
2018-02-10T15:27:53.625Z,37.45
2018-02-10T15:30:34.241Z,37.15
2018-02-10T15:33:14.382Z,37.80
2018-02-10T15:35:43.209Z,39.88
2018-02-10T15:38:11.621Z,39.15
2018-02-10T15:40:40.153Z,39.17
2018-02-10T15:43:08.652Z,38.30
2018-02-10T15:45:37.088Z,38.67
2018-02-10T15:48:05.542Z,39.17
2018-02-10T15:50:35.480Z,40.70
2018-02-10T15:53:03.964Z,40.42
2018-02-10T15:55:32.387Z,41.60
2018-02-10T15:58:01.540Z,36.72
2018-02-10T16:00:30.173Z,34.65
2018-02-10T16:02:58.921Z,36.08
2018-02-10T16:05:27.957Z,38.15
2018-02-10T16:07:56.729Z,30.08
2018-02-10T16:10:25.352Z,33.55
2018-02-10T16:12:54.561Z,33.15
2018-02-10T16:15:23.476Z,31.60
2018-02-10T16:17:52.182Z,33.03
2018-02-10T16:20:21.323Z,32.35
2018-02-10T16:22:49.787Z,30.58
2018-02-10T16:25:18.323Z,31.75
2018-02-10T16:27:47.240Z,30.95
2018-02-10T16:30:15.687Z,30.83
2018-02-10T16:32:44.149Z,29.55
2018-02-10T16:35:13.248Z,28.67
2018-02-10T16:37:41.667Z,28.23
2018-02-10T16:40:10.103Z,27.17
2018-02-10T16:42:38.991Z,27.48
2018-02-10T16:45:07.415Z,24.67
2018-02-10T16:47:35.849Z,26.20
2018-02-10T16:50:04.918Z,23.42
2018-02-10T16:52:34.149Z,24.10
2018-02-10T16:55:02.644Z,24.20
2018-02-10T16:57:31.537Z,24.37
2018-02-10T16:59:59.993Z,24.48
2018-02-10T17:02:28.650Z,23.20
2018-02-10T17:04:57.238Z,21.80
2018-02-10T17:07:26.051Z,26.40
2018-02-10T17:09:54.951Z,24.02
2018-02-10T17:12:23.651Z,25.05
2018-02-10T17:14:52.107Z,22.30
2018-02-10T17:17:20.653Z,23.33
2018-02-10T17:19:49.504Z,23.92
2018-02-10T17:22:18.015Z,24.27
2018-02-10T17:24:46.465Z,26.87
2018-02-10T17:27:15.341Z,24.35
2018-02-10T17:29:43.770Z,23.98
2018-02-10T17:32:12.293Z,25.62
2018-02-10T17:34:41.312Z,21.67
2018-02-10T17:37:09.762Z,22.67
2018-02-10T17:39:38.276Z,25.25
2018-02-10T17:42:06.753Z,24.75
2018-02-10T17:44:35.209Z,24.10
2018-02-10T17:47:03.642Z,24.60
2018-02-10T17:49:32.357Z,25.00
2018-02-10T17:52:00.839Z,24.48
2018-02-10T17:54:29.384Z,24.58
2018-02-10T17:56:58.000Z,23.67
2018-02-10T17:59:26.449Z,22.73
2018-02-10T18:01:55.214Z,21.83
2018-02-10T18:04:24.720Z,23.45
2018-02-10T18:06:53.336Z,23.90
2018-02-10T18:09:21.882Z,22.67
2018-02-10T18:11:51.087Z,24.20
2018-02-10T18:14:19.838Z,23.40
2018-02-10T18:16:48.254Z,26.27
2018-02-10T18:19:17.001Z,24.58
2018-02-10T18:21:45.647Z,24.80
2018-02-10T18:24:14.076Z,25.65
2018-02-10T18:26:42.544Z,25.83
2018-02-10T18:29:10.992Z,25.58
2018-02-10T18:31:39.999Z,27.85
2018-02-10T18:34:08.601Z,30.17
2018-02-10T18:36:37.008Z,26.90
2018-02-10T18:39:05.540Z,30.08
2018-02-10T18:41:34.093Z,31.30
2018-02-10T18:44:02.553Z,30.10
2018-02-10T18:46:31.162Z,33.28
2018-02-10T18:48:59.697Z,31.25
2018-02-10T18:51:28.585Z,31.58
2018-02-10T18:53:57.078Z,33.78
2018-02-10T18:56:26.243Z,35.53
2018-02-10T18:58:55.154Z,33.03
2018-02-10T19:01:23.718Z,34.97
2018-02-10T19:03:53.659Z,33.05
2018-02-10T19:06:22.209Z,34.10
2018-02-10T19:08:50.856Z,33.28
2018-02-10T19:11:20.342Z,32.10
2018-02-10T19:13:48.849Z,39.42
2018-02-10T19:16:17.293Z,39.58
2018-02-10T19:18:46.247Z,32.92
2018-02-10T19:21:14.752Z,34.50
2018-02-10T19:23:43.235Z,36.60
2018-02-10T19:26:12.709Z,31.85
2018-02-10T19:28:41.153Z,35.83
2018-02-10T19:31:09.672Z,33.90
2018-02-10T19:33:38.207Z,31.90
2018-02-10T19:36:06.776Z,33.72
2018-02-10T19:38:36.317Z,35.30
2018-02-10T19:41:04.887Z,34.03
2018-02-10T19:43:33.439Z,36.53
2018-02-10T19:46:01.997Z,34.45
2018-02-10T19:48:31.099Z,32.20
2018-02-10T19:51:00.308Z,33.55
2018-02-10T19:53:29.412Z,31.90
2018-02-10T19:55:58.368Z,31.27
2018-02-10T19:58:26.965Z,31.25
2018-02-10T20:00:55.642Z,34.42
2018-02-10T20:03:24.770Z,33.13
2018-02-10T20:05:53.418Z,30.27
2018-02-10T20:08:21.988Z,32.58
2018-02-10T20:10:52.188Z,32.00
2018-02-10T20:13:20.640Z,33.83
2018-02-10T20:15:50.072Z,31.87
2018-02-10T20:18:18.696Z,30.70
2018-02-10T20:20:47.300Z,30.75
2018-02-10T20:23:15.716Z,33.00
2018-02-10T20:25:44.901Z,28.27
2018-02-10T20:28:13.396Z,30.25
2018-02-10T20:30:41.845Z,30.00
2018-02-10T20:33:11.532Z,30.98
2018-02-10T20:35:39.955Z,29.50
2018-02-10T20:38:08.399Z,30.23
2018-02-10T20:40:37.865Z,33.00
2018-02-10T20:43:06.351Z,29.27
2018-02-10T20:45:34.797Z,31.95
2018-02-10T20:48:03.304Z,33.30
2018-02-10T20:50:31.822Z,32.45
2018-02-10T20:53:00.552Z,29.87
2018-02-10T20:55:29.947Z,32.92
2018-02-10T20:57:58.699Z,30.92
2018-02-10T21:00:27.229Z,29.70
2018-02-10T21:02:56.376Z,30.90
2018-02-10T21:05:24.915Z,31.80
2018-02-10T21:07:53.407Z,32.30
2018-02-10T21:10:22.532Z,33.53
2018-02-10T21:12:51.642Z,29.85
2018-02-10T21:15:20.372Z,29.77
2018-02-10T21:17:49.081Z,35.35
2018-02-10T21:20:17.513Z,30.25
2018-02-10T21:22:45.962Z,32.10
2018-02-10T21:25:15.736Z,34.10
2018-02-10T21:27:44.318Z,29.35
2018-02-10T21:30:12.781Z,33.35
2018-02-10T21:32:42.138Z,30.48
2018-02-10T21:35:10.598Z,33.70
2018-02-10T21:37:39.094Z,31.55
2018-02-10T21:40:08.008Z,29.08
2018-02-10T21:42:36.628Z,30.00
2018-02-10T21:45:05.115Z,32.35
2018-02-10T21:47:33.874Z,30.35
2018-02-10T21:50:02.292Z,33.30
2018-02-10T21:52:30.754Z,31.23
2018-02-10T21:54:59.957Z,32.17
2018-02-10T21:57:28.959Z,32.13
2018-02-10T21:59:58.063Z,31.65
2018-02-10T22:02:27.056Z,36.50
2018-02-10T22:04:55.663Z,32.63
2018-02-10T22:07:24.468Z,31.00
2018-02-10T22:09:53.302Z,30.70
2018-02-10T22:12:22.200Z,34.15
2018-02-10T22:14:50.701Z,29.08
2018-02-10T22:17:19.252Z,29.73
2018-02-10T22:19:47.732Z,32.25
2018-02-10T22:22:16.181Z,29.40
2018-02-10T22:24:44.886Z,27.33
2018-02-10T22:27:13.306Z,30.50
2018-02-10T22:29:41.707Z,28.08
2018-02-10T22:32:10.188Z,30.60
2018-02-10T22:34:38.617Z,28.27
2018-02-10T22:37:07.057Z,28.42
2018-02-10T22:39:35.532Z,32.15
2018-02-10T22:42:03.977Z,29.15
2018-02-10T22:44:32.419Z,31.15
2018-02-10T22:47:00.951Z,30.88
2018-02-10T22:49:29.453Z,28.70
2018-02-10T22:51:57.913Z,28.62
2018-02-10T22:54:26.546Z,30.48
2018-02-10T22:56:55.077Z,30.85
2018-02-10T22:59:23.761Z,29.05
2018-02-10T23:01:52.434Z,27.30
2018-02-10T23:04:20.956Z,24.70
2018-02-10T23:06:49.439Z,29.45
2018-02-10T23:09:18.814Z,30.42
2018-02-10T23:11:47.292Z,28.83
2018-02-10T23:14:15.771Z,29.37
2018-02-10T23:16:45.422Z,26.55
2018-02-10T23:19:13.949Z,26.60
2018-02-10T23:21:42.576Z,27.45
2018-02-10T23:24:11.949Z,26.80
2018-02-10T23:26:40.368Z,26.52
2018-02-10T23:29:08.851Z,29.15
2018-02-10T23:31:38.265Z,28.05
2018-02-10T23:34:06.714Z,29.92
2018-02-10T23:36:35.220Z,26.20
2018-02-10T23:39:03.881Z,27.35
2018-02-10T23:41:32.364Z,30.08
2018-02-10T23:44:00.833Z,25.85
2018-02-10T23:46:29.656Z,27.77
2018-02-10T23:48:58.383Z,28.70
2018-02-10T23:51:26.862Z,25.23
2018-02-10T23:53:55.652Z,27.95
2018-02-10T23:56:24.427Z,23.85
2018-02-10T23:58:52.970Z,25.88
